Time;durP1;ratioP1;P1;durP2;ratioP2;P2;SDS_P1;SDS_P2;PMS_P1;PMS_P2;Temp;Humidity;BMP_temperature;BMP_pressure;BME280_temperature;BME280_humidity;BME280_pressure;Samples;Min_cycle;Max_cycle;Signal;HPM_P1;HPM_P2
2022/10/06 00:02:09;;;;;;;;;;;14.10;99.90;;;;;;12463354;28;20362;-85
2022/10/06 00:08:11;;;;;;;;;;;13.80;99.90;;;;;;12456246;28;19925;-85
2022/10/06 00:14:13;;;;;;;;;;;13.50;99.90;;;;;;12474995;28;19925;-85
2022/10/06 00:20:14;;;;;;;;;;;13.30;99.90;;;;;;12473608;28;20518;-85
2022/10/06 00:26:16;;;;;;;;;;;13.40;99.90;;;;;;12488182;28;19925;-85
2022/10/06 00:32:18;;;;;;;;;;;13.40;99.90;;;;;;12473806;28;19996;-85
2022/10/06 00:38:19;;;;;;;;;;;13.40;99.90;;;;;;12496156;28;20285;-84
2022/10/06 00:44:21;;;;;;;;;;;13.30;99.90;;;;;;12489973;28;19929;-85
2022/10/06 00:50:23;;;;;;;;;;;13.30;99.90;;;;;;12481649;28;19925;-85
2022/10/06 00:56:25;;;;;;;;;;;13.40;99.90;;;;;;12489608;28;20619;-85
2022/10/06 01:02:37;;;;;;;;;;;13.50;99.90;;;;;;12477850;28;19925;-85
2022/10/06 01:08:39;;;;;;;;;;;13.50;99.90;;;;;;12458128;28;19955;-85
2022/10/06 01:14:41;;;;;;;;;;;13.40;99.90;;;;;;12489725;28;19936;-85
2022/10/06 01:20:46;;;;;;;;;;;13.50;99.90;;;;;;12472887;28;19933;-84
2022/10/06 01:26:50;;;;;;;;;;;13.60;99.90;;;;;;12486387;28;19928;-85
2022/10/06 01:32:51;;;;;;;;;;;13.60;99.90;;;;;;12477591;28;20289;-85
2022/10/06 01:38:53;;;;;;;;;;;13.50;99.90;;;;;;12500176;28;19936;-85
2022/10/06 01:44:55;;;;;;;;;;;13.60;99.90;;;;;;12478311;28;19929;-84
2022/10/06 01:50:56;;;;;;;;;;;13.60;99.90;;;;;;12495250;28;19932;-84
2022/10/06 01:56:58;;;;;;;;;;;13.50;99.90;;;;;;12472744;28;19936;-85
2022/10/06 02:03:00;;;;;;;;;;;13.50;99.90;;;;;;12483734;28;20394;-85
2022/10/06 02:09:01;;;;;;;;;;;13.60;99.90;;;;;;12472945;28;19925;-85
2022/10/06 02:15:03;;;;;;;;;;;13.40;99.90;;;;;;12469349;28;19925;-85
2022/10/06 02:21:05;;;;;;;;;;;13.50;99.90;;;;;;12459871;28;19940;-85
2022/10/06 02:27:07;;;;;;;;;;;13.40;99.90;;;;;;12475692;28;20292;-85
2022/10/06 02:33:08;;;;;;;;;;;13.50;99.90;;;;;;12491348;28;19936;-85
2022/10/06 02:39:10;;;;;;;;;;;13.50;99.90;;;;;;12492543;28;19925;-84
2022/10/06 02:45:12;;;;;;;;;;;13.60;99.90;;;;;;12483355;28;19929;-86
2022/10/06 02:51:15;;;;;;;;;;;13.50;99.90;;;;;;12473039;28;19925;-85
2022/10/06 02:57:16;;;;;;;;;;;13.60;99.90;;;;;;12493347;28;19933;-86
2022/10/06 03:03:18;;;;;;;;;;;13.50;99.90;;;;;;12504666;28;19929;-85
2022/10/06 03:09:19;;;;;;;;;;;13.50;99.90;;;;;;12531415;28;19992;-86
2022/10/06 03:15:21;;;;;;;;;;;13.40;99.90;;;;;;12542842;28;19981;-85
2022/10/06 03:21:28;;;;;;;;;;;13.40;99.90;;;;;;12506747;28;19936;-86
2022/10/06 03:27:29;;;;;;;;;;;13.50;99.90;;;;;;12541663;28;19992;-85
2022/10/06 03:33:32;;;;;;;;;;;13.50;99.90;;;;;;12503394;28;20008;-85
2022/10/06 03:39:33;;;;;;;;;;;13.50;99.90;;;;;;12473101;28;19929;-86
2022/10/06 03:45:35;;;;;;;;;;;13.40;99.90;;;;;;12485565;28;19933;-85
2022/10/06 03:51:37;;;;;;;;;;;13.30;99.90;;;;;;12492636;28;19944;-85
2022/10/06 03:57:39;;;;;;;;;;;13.30;99.90;;;;;;12465604;28;19941;-85
2022/10/06 04:03:41;;;;;;;;;;;13.20;99.90;;;;;;12483576;28;19926;-85
2022/10/06 04:09:42;;;;;;;;;;;13.10;99.90;;;;;;12465798;28;19932;-85
2022/10/06 04:15:44;;;;;;;;;;;13.20;99.90;;;;;;12463810;28;19925;-85
2022/10/06 04:21:46;;;;;;;;;;;13.20;99.90;;;;;;12465020;28;19932;-85
2022/10/06 04:27:48;;;;;;;;;;;13.20;99.90;;;;;;12485779;28;20377;-85
2022/10/06 04:33:51;;;;;;;;;;;13.10;99.90;;;;;;12460187;28;19936;-85
2022/10/06 04:39:53;;;;;;;;;;;12.90;99.90;;;;;;12467922;28;19933;-86
2022/10/06 04:45:55;;;;;;;;;;;12.90;99.90;;;;;;12489299;28;19925;-85
2022/10/06 04:51:57;;;;;;;;;;;12.70;99.90;;;;;;12483452;28;19925;-85
2022/10/06 04:58:01;;;;;;;;;;;12.70;99.90;;;;;;12468707;28;19929;-85
2022/10/06 05:04:03;;;;;;;;;;;12.70;99.90;;;;;;12480080;28;19936;-85
2022/10/06 05:10:05;;;;;;;;;;;12.60;99.90;;;;;;12472340;28;19964;-85
2022/10/06 05:16:09;;;;;;;;;;;12.30;99.90;;;;;;12469859;28;20297;-85
2022/10/06 05:22:11;;;;;;;;;;;12.30;99.90;;;;;;12473056;28;19925;-85
2022/10/06 05:28:12;;;;;;;;;;;12.20;99.90;;;;;;12478943;28;19925;-86
2022/10/06 05:34:14;;;;;;;;;;;12.20;99.90;;;;;;12481263;28;19936;-86
2022/10/06 05:40:16;;;;;;;;;;;12.10;99.90;;;;;;12481642;28;19948;-86
2022/10/06 05:46:28;;;;;;;;;;;12.10;99.90;;;;;;12489124;28;19926;-87
2022/10/06 05:52:29;;;;;;;;;;;12.10;99.90;;;;;;12470427;28;19933;-86
2022/10/06 05:58:32;;;;;;;;;;;12.00;99.90;;;;;;12467418;28;20011;-86
2022/10/06 06:04:34;;;;;;;;;;;12.00;99.90;;;;;;12478387;28;19926;-86
2022/10/06 06:10:36;;;;;;;;;;;12.00;99.90;;;;;;12459795;28;20375;-86
2022/10/06 06:16:39;;;;;;;;;;;11.80;99.90;;;;;;12479000;28;19933;-86
2022/10/06 06:22:40;;;;;;;;;;;11.80;99.90;;;;;;12470455;28;19929;-87
2022/10/06 06:28:44;;;;;;;;;;;11.90;99.90;;;;;;12478733;28;19930;-86
2022/10/06 06:34:46;;;;;;;;;;;11.90;99.90;;;;;;12490984;28;19929;-86
2022/10/06 06:40:49;;;;;;;;;;;12.00;99.90;;;;;;12481930;28;19925;-86
2022/10/06 06:46:51;;;;;;;;;;;11.90;99.90;;;;;;12468236;28;19933;-86
2022/10/06 06:52:53;;;;;;;;;;;12.00;99.90;;;;;;12484863;28;19932;-86
2022/10/06 06:58:54;;;;;;;;;;;12.00;99.90;;;;;;12460710;28;20250;-86
2022/10/06 07:04:56;;;;;;;;;;;12.10;99.90;;;;;;12480923;28;19925;-87
2022/10/06 07:10:57;;;;;;;;;;;12.10;99.90;;;;;;12464473;28;20277;-86
2022/10/06 07:29:40;;;;;;;;;;;12.40;99.90;;;;;;12467349;28;19937;-85
2022/10/06 07:35:41;;;;;;;;;;;12.50;99.90;;;;;;12459611;28;20371;-85
2022/10/06 07:41:43;;;;;;;;;;;12.50;99.90;;;;;;12466340;28;19929;-85
2022/10/06 07:47:44;;;;;;;;;;;12.80;99.90;;;;;;12480376;28;20282;-85
2022/10/06 07:53:49;;;;;;;;;;;12.80;99.90;;;;;;12473869;28;19926;-85
2022/10/06 07:59:51;;;;;;;;;;;12.90;99.90;;;;;;12453266;28;20290;-86
2022/10/06 08:05:57;;;;;;;;;;;13.10;99.90;;;;;;12471936;28;20010;-85
2022/10/06 08:12:31;;;;;;;;;;;13.10;99.90;;;;;;12458263;28;19929;-86
2022/10/06 08:18:22;;;;;;;;;;;13.20;99.90;;;;;;12466564;28;19929;-86
2022/10/06 08:24:44;;;;;;;;;;;13.40;99.90;;;;;;12469676;28;19964;-86
2022/10/06 08:31:07;;;;;;;;;;;13.50;99.90;;;;;;12466483;28;20385;-86
2022/10/06 08:37:09;;;;;;;;;;;13.60;99.90;;;;;;12469807;28;19932;-86
2022/10/06 08:43:23;;;;;;;;;;;13.60;99.90;;;;;;12476163;28;20293;-85
2022/10/06 08:49:26;;;;;;;;;;;13.80;99.90;;;;;;12466463;28;19930;-85
2022/10/06 08:55:41;;;;;;;;;;;13.60;99.90;;;;;;12468470;28;20381;-85
2022/10/06 09:01:46;;;;;;;;;;;13.90;99.90;;;;;;12469843;28;19933;-86
2022/10/06 09:08:07;;;;;;;;;;;14.10;99.90;;;;;;12458809;28;19933;-86
2022/10/06 09:14:12;;;;;;;;;;;14.10;99.90;;;;;;12458568;28;20422;-86
2022/10/06 09:20:28;;;;;;;;;;;14.40;99.90;;;;;;12450115;28;19940;-86
2022/10/06 09:26:30;;;;;;;;;;;14.40;99.90;;;;;;12466226;28;19936;-86
2022/10/06 09:32:33;;;;;;;;;;;14.70;99.90;;;;;;12468424;28;20353;-87
2022/10/06 09:38:46;;;;;;;;;;;15.00;99.90;;;;;;12470522;28;20308;-86
2022/10/06 09:45:02;;;;;;;;;;;15.20;99.90;;;;;;12486206;28;19960;-86
2022/10/06 09:51:07;;;;;;;;;;;15.20;99.90;;;;;;12472522;28;19973;-86
2022/10/06 09:57:17;;;;;;;;;;;15.20;99.90;;;;;;12480516;28;20389;-85
2022/10/06 10:03:19;;;;;;;;;;;14.70;99.90;;;;;;12469449;28;20386;-86
2022/10/06 10:09:26;;;;;;;;;;;14.50;99.90;;;;;;12481544;28;19967;-86
2022/10/06 10:15:39;;;;;;;;;;;14.60;99.90;;;;;;12459944;28;19933;-86
2022/10/06 10:21:43;;;;;;;;;;;14.90;99.90;;;;;;12462289;28;20352;-87
2022/10/06 10:28:03;;;;;;;;;;;15.60;99.90;;;;;;12463689;28;19929;-86
2022/10/06 10:34:08;;;;;;;;;;;15.50;99.90;;;;;;12480136;28;20313;-86
2022/10/06 10:40:24;;;;;;;;;;;15.30;99.90;;;;;;12480337;28;19928;-86
2022/10/06 10:46:31;;;;;;;;;;;15.30;99.90;;;;;;12468689;28;19929;-87
2022/10/06 10:52:40;;;;;;;;;;;16.00;99.90;;;;;;12471101;28;19933;-86
2022/10/06 10:58:43;;;;;;;;;;;16.40;99.90;;;;;;12469117;28;19929;-86
2022/10/06 11:05:05;;;;;;;;;;;16.60;99.90;;;;;;12457604;28;19925;-87
2022/10/06 11:11:14;;;;;;;;;;;16.40;99.90;;;;;;12462207;28;19936;-86
2022/10/06 11:17:49;;;;;;;;;;;15.90;99.90;;;;;;12468971;28;19932;-86
2022/10/06 11:24:14;;;;;;;;;;;16.10;99.90;;;;;;12459281;28;20285;-86
2022/10/06 11:30:18;;;;;;;;;;;15.90;99.90;;;;;;12463259;28;19932;-86
2022/10/06 11:36:30;;;;;;;;;;;15.50;99.90;;;;;;12465069;28;19937;-87
2022/10/06 11:42:42;;;;;;;;;;;15.90;99.90;;;;;;12477159;28;19929;-87
2022/10/06 11:48:45;;;;;;;;;;;16.50;99.90;;;;;;12482753;28;19929;-87
2022/10/06 11:55:06;;;;;;;;;;;17.00;99.90;;;;;;12466029;28;19929;-86
2022/10/06 12:01:28;;;;;;;;;;;17.60;99.90;;;;;;12463982;28;19936;-87
2022/10/06 12:07:49;;;;;;;;;;;17.50;99.90;;;;;;12452832;28;19935;-86
2022/10/06 12:13:53;;;;;;;;;;;17.40;99.90;;;;;;12462447;28;20064;-86
2022/10/06 12:20:24;;;;;;;;;;;17.40;99.90;;;;;;12470803;28;20392;-86
2022/10/06 12:26:48;;;;;;;;;;;17.20;99.90;;;;;;12470326;28;19982;-86
2022/10/06 12:32:59;;;;;;;;;;;17.10;99.90;;;;;;12468938;28;19936;-86
2022/10/06 12:39:02;;;;;;;;;;;17.40;99.90;;;;;;12470543;28;19926;-86
2022/10/06 12:45:12;;;;;;;;;;;17.40;99.90;;;;;;12484836;28;20443;-87
2022/10/06 12:51:22;;;;;;;;;;;17.40;99.90;;;;;;12473800;28;20403;-86
2022/10/06 12:57:29;;;;;;;;;;;17.50;99.90;;;;;;12459083;28;19932;-86
2022/10/06 13:03:31;;;;;;;;;;;17.40;99.90;;;;;;12476555;28;19933;-86
2022/10/06 13:09:33;;;;;;;;;;;17.60;99.90;;;;;;12459785;28;19930;-86
2022/10/06 13:15:35;;;;;;;;;;;17.60;99.90;;;;;;12470981;28;19925;-85
2022/10/06 13:21:37;;;;;;;;;;;17.50;99.90;;;;;;12470381;28;19934;-85
2022/10/06 13:27:39;;;;;;;;;;;17.50;99.90;;;;;;12467234;28;19933;-86
2022/10/06 13:33:45;;;;;;;;;;;17.60;99.90;;;;;;12484311;28;19936;-86
2022/10/06 13:39:46;;;;;;;;;;;17.50;99.90;;;;;;12439660;28;19929;-86
2022/10/06 13:45:48;;;;;;;;;;;17.00;99.90;;;;;;12471978;28;20378;-86
2022/10/06 13:51:51;;;;;;;;;;;17.00;99.90;;;;;;12469472;28;19929;-86
2022/10/06 13:57:57;;;;;;;;;;;17.10;99.90;;;;;;12458471;28;20373;-87
2022/10/06 14:04:12;;;;;;;;;;;16.90;99.90;;;;;;12481105;28;19925;-86
2022/10/06 14:10:34;;;;;;;;;;;16.70;99.90;;;;;;12456650;28;20297;-86
2022/10/06 14:16:36;;;;;;;;;;;16.80;99.90;;;;;;12463713;28;19948;-86
2022/10/06 14:22:37;;;;;;;;;;;16.70;99.90;;;;;;12462062;28;20408;-85
2022/10/06 14:28:39;;;;;;;;;;;16.50;99.90;;;;;;12482294;28;19925;-86
2022/10/06 14:34:41;;;;;;;;;;;16.40;99.90;;;;;;12471692;28;20352;-86
2022/10/06 14:40:43;;;;;;;;;;;16.40;99.90;;;;;;12479196;28;19936;-86
2022/10/06 14:46:48;;;;;;;;;;;16.20;99.90;;;;;;12464115;28;20321;-86
2022/10/06 14:52:50;;;;;;;;;;;16.20;99.90;;;;;;12481642;28;19925;-86
2022/10/06 14:58:51;;;;;;;;;;;16.20;99.90;;;;;;12474565;28;19936;-85
2022/10/06 15:04:53;;;;;;;;;;;16.30;99.90;;;;;;12473776;28;19925;-86
2022/10/06 15:10:55;;;;;;;;;;;16.30;99.90;;;;;;12466234;28;19936;-86
2022/10/06 15:17:00;;;;;;;;;;;16.20;99.90;;;;;;12465608;28;19933;-85
2022/10/06 15:23:01;;;;;;;;;;;16.20;99.90;;;;;;12466337;28;19932;-86
2022/10/06 15:29:03;;;;;;;;;;;16.20;99.90;;;;;;12473995;28;19925;-86
2022/10/06 15:35:05;;;;;;;;;;;16.10;99.90;;;;;;12468219;28;19936;-86
2022/10/06 15:41:06;;;;;;;;;;;16.20;99.90;;;;;;12476680;28;19925;-86
2022/10/06 15:47:08;;;;;;;;;;;16.10;99.90;;;;;;12462459;28;19925;-86
2022/10/06 15:53:10;;;;;;;;;;;16.20;99.90;;;;;;12465620;28;19933;-86
2022/10/06 15:59:12;;;;;;;;;;;16.00;99.90;;;;;;12468396;28;19936;-86
2022/10/06 16:05:44;;;;;;;;;;;15.80;99.90;;;;;;12473496;28;20331;-86
2022/10/06 16:11:36;;;;;;;;;;;15.70;99.90;;;;;;12453690;28;19925;-86
2022/10/06 16:17:38;;;;;;;;;;;15.50;99.90;;;;;;12463684;28;20348;-86
2022/10/06 16:23:39;;;;;;;;;;;15.40;99.90;;;;;;12460491;28;19949;-86
2022/10/06 16:29:41;;;;;;;;;;;15.20;99.90;;;;;;12472795;28;19925;-86
2022/10/06 16:35:43;;;;;;;;;;;14.90;99.90;;;;;;12465119;28;19925;-86
2022/10/06 16:41:45;;;;;;;;;;;14.70;99.90;;;;;;12466683;28;19929;-86
2022/10/06 16:47:46;;;;;;;;;;;14.50;99.90;;;;;;12468837;28;20308;-86
2022/10/06 16:53:53;;;;;;;;;;;14.40;99.90;;;;;;12474126;28;19929;-86
2022/10/06 16:59:54;;;;;;;;;;;14.20;99.90;;;;;;12470712;28;19932;-86
2022/10/06 17:06:10;;;;;;;;;;;14.00;99.90;;;;;;12479977;28;19930;-86
2022/10/06 17:12:12;;;;;;;;;;;13.80;99.90;;;;;;12469120;28;20336;-86
2022/10/06 17:18:14;;;;;;;;;;;13.70;99.90;;;;;;12467325;28;19925;-86
2022/10/06 17:24:16;;;;;;;;;;;13.50;99.90;;;;;;12473352;28;19931;-86
2022/10/06 17:30:18;;;;;;;;;;;13.40;99.90;;;;;;12465375;28;20328;-85
2022/10/06 17:36:21;;;;;;;;;;;13.40;99.90;;;;;;12467497;28;20598;-86
2022/10/06 17:42:23;;;;;;;;;;;13.20;99.90;;;;;;12486453;28;19953;-86
2022/10/06 17:48:25;;;;;;;;;;;13.10;99.90;;;;;;12469369;28;19936;-86
2022/10/06 17:54:27;;;;;;;;;;;13.20;99.90;;;;;;12463841;28;20024;-86
2022/10/06 18:00:30;;;;;;;;;;;13.00;99.90;;;;;;12463360;28;20373;-86
2022/10/06 18:06:33;;;;;;;;;;;13.00;99.90;;;;;;12466021;28;19936;-86
2022/10/06 18:12:37;;;;;;;;;;;13.00;99.90;;;;;;12473897;28;19975;-86
2022/10/06 18:18:46;;;;;;;;;;;12.90;99.90;;;;;;12476748;28;19926;-86
2022/10/06 18:24:50;;;;;;;;;;;12.80;99.90;;;;;;12466685;28;19925;-86
2022/10/06 18:30:57;;;;;;;;;;;12.70;99.90;;;;;;12468589;28;20451;-86
2022/10/06 18:36:59;;;;;;;;;;;12.70;99.90;;;;;;12474242;28;19944;-85
2022/10/06 18:43:01;;;;;;;;;;;12.60;99.90;;;;;;12480037;28;19926;-86
2022/10/06 18:49:11;;;;;;;;;;;12.60;99.90;;;;;;12458077;28;20646;-86
2022/10/06 18:55:13;;;;;;;;;;;12.60;99.90;;;;;;12462415;28;19930;-86
2022/10/06 19:01:15;;;;;;;;;;;12.50;99.90;;;;;;12471640;28;19929;-85
2022/10/06 19:07:17;;;;;;;;;;;12.30;99.90;;;;;;12451790;28;19925;-85
2022/10/06 19:13:21;;;;;;;;;;;12.20;99.90;;;;;;12452208;28;19930;-85
2022/10/06 19:19:22;;;;;;;;;;;12.30;99.90;;;;;;12476938;28;19929;-85
2022/10/06 19:25:25;;;;;;;;;;;12.40;99.90;;;;;;12456055;28;20066;-85
2022/10/06 19:31:27;;;;;;;;;;;12.40;99.90;;;;;;12470589;28;19925;-85
2022/10/06 19:37:29;;;;;;;;;;;12.30;99.90;;;;;;12449521;28;20477;-85
2022/10/06 19:43:31;;;;;;;;;;;12.10;99.90;;;;;;12469111;28;19932;-85
2022/10/06 19:49:33;;;;;;;;;;;12.10;99.90;;;;;;12478255;28;19933;-85
2022/10/06 19:55:35;;;;;;;;;;;12.10;99.90;;;;;;12461475;28;19925;-85
2022/10/06 20:01:37;;;;;;;;;;;12.10;99.90;;;;;;12475572;28;19940;-85
2022/10/06 20:07:39;;;;;;;;;;;12.00;99.90;;;;;;12461124;28;19926;-84
2022/10/06 20:13:42;;;;;;;;;;;12.10;99.90;;;;;;12469485;28;20313;-85
2022/10/06 20:19:45;;;;;;;;;;;12.20;99.90;;;;;;12469791;28;20058;-85
2022/10/06 20:25:47;;;;;;;;;;;12.10;99.90;;;;;;12467490;28;19929;-85
2022/10/06 20:31:50;;;;;;;;;;;12.10;99.90;;;;;;12461943;28;19925;-85
2022/10/06 20:37:51;;;;;;;;;;;12.10;99.90;;;;;;12470462;28;19949;-85
2022/10/06 20:43:55;;;;;;;;;;;12.10;99.90;;;;;;12463280;28;19929;-84
2022/10/06 20:49:57;;;;;;;;;;;12.00;99.90;;;;;;12489874;28;20019;-85
2022/10/06 20:56:00;;;;;;;;;;;12.10;99.90;;;;;;12456873;28;19930;-84
2022/10/06 21:02:02;;;;;;;;;;;11.80;99.90;;;;;;12470037;28;19925;-85
2022/10/06 21:08:04;;;;;;;;;;;11.90;99.90;;;;;;12461210;28;19933;-85
2022/10/06 21:14:09;;;;;;;;;;;11.80;99.90;;;;;;12477298;28;20431;-85
2022/10/06 21:20:11;;;;;;;;;;;11.70;99.90;;;;;;12458949;28;19936;-85
2022/10/06 21:26:14;;;;;;;;;;;11.50;99.90;;;;;;12479477;28;19976;-84
2022/10/06 21:32:15;;;;;;;;;;;11.40;99.90;;;;;;12481017;28;19964;-85
2022/10/06 21:38:17;;;;;;;;;;;11.20;99.90;;;;;;12470215;28;19932;-85
2022/10/06 21:44:19;;;;;;;;;;;11.20;99.90;;;;;;12521673;28;19917;-85
2022/10/06 21:50:21;;;;;;;;;;;11.10;99.90;;;;;;12534495;28;19933;-85
2022/10/06 21:56:24;;;;;;;;;;;11.10;99.90;;;;;;12526371;28;19928;-85
2022/10/06 22:02:25;;;;;;;;;;;11.10;99.90;;;;;;12518858;28;19925;-84
2022/10/06 22:08:31;;;;;;;;;;;11.20;99.90;;;;;;12507320;28;19932;-84
2022/10/06 22:14:33;;;;;;;;;;;11.00;99.90;;;;;;12425100;28;19956;-84
2022/10/06 22:20:35;;;;;;;;;;;11.00;99.90;;;;;;12434247;28;19937;-84
2022/10/06 22:26:38;;;;;;;;;;;11.00;99.90;;;;;;12421838;28;19929;-84
2022/10/06 22:32:39;;;;;;;;;;;10.90;99.90;;;;;;12434845;28;20647;-84
2022/10/06 22:38:41;;;;;;;;;;;10.90;99.90;;;;;;12391266;28;20058;-84
2022/10/06 22:44:43;;;;;;;;;;;10.80;99.90;;;;;;12401697;28;19964;-84
2022/10/06 22:50:45;;;;;;;;;;;10.80;99.90;;;;;;12428234;28;20013;-84
2022/10/06 22:56:47;;;;;;;;;;;10.70;99.90;;;;;;12415460;28;19933;-84
2022/10/06 23:02:49;;;;;;;;;;;10.80;99.90;;;;;;12420630;28;20400;-84
2022/10/06 23:08:50;;;;;;;;;;;10.70;99.90;;;;;;12432513;28;20040;-84
2022/10/06 23:14:54;;;;;;;;;;;10.80;99.90;;;;;;12469945;28;21447;-84
2022/10/06 23:21:22;;;;;;;;;;;10.80;99.90;;;;;;12459021;28;20016;-84
2022/10/06 23:27:24;;;;;;;;;;;10.80;99.90;;;;;;12464469;28;20381;-83
2022/10/06 23:33:28;;;;;;;;;;;10.60;99.90;;;;;;12482056;28;19925;-84
2022/10/06 23:39:30;;;;;;;;;;;10.60;99.90;;;;;;12469155;28;19968;-83
2022/10/06 23:45:32;;;;;;;;;;;10.50;99.90;;;;;;12466482;28;20404;-84
2022/10/06 23:51:33;;;;;;;;;;;10.50;99.90;;;;;;12472356;28;19940;-84
2022/10/06 23:57:35;;;;;;;;;;;10.40;99.90;;;;;;12463193;28;19968;-84
